Time,TemperatureF,DewpointF,PressureIn,WindDirection,WindDirectionDegrees,WindSpeedMPH,WindSpeedGustMPH,Humidity,HourlyPrecipIn,Conditions,Clouds,dailyrainin,SoftwareType,DateUTC
2013-10-04 00:00:00,68.6,67.0,29.86,East,93,1.0,3.0,93,0.00,,,0.00,weatherlink.com 1.10,2013-10-04 05:00:00,
2013-10-04 00:15:00,68.3,66.0,29.86,ESE,115,2.0,4.0,93,0.00,,,0.00,weatherlink.com 1.10,2013-10-04 05:15:00,
2013-10-04 00:30:00,68.1,66.0,29.86,ESE,105,0.0,3.0,94,0.00,,,0.00,weatherlink.com 1.10,2013-10-04 05:30:00,
2013-10-04 00:45:00,68.0,66.0,29.86,ESE,112,1.0,3.0,94,0.00,,,0.00,weatherlink.com 1.10,2013-10-04 05:45:00,
2013-10-04 01:00:00,67.9,66.0,29.86,ESE,115,2.0,3.0,94,0.00,,,0.00,weatherlink.com 1.10,2013-10-04 06:00:00,
2013-10-04 01:15:00,67.7,66.0,29.86,SE,136,1.0,3.0,95,0.00,,,0.00,weatherlink.com 1.10,2013-10-04 06:15:00,
2013-10-04 01:31:00,67.6,66.0,29.86,ESE,108,1.0,4.0,95,0.00,,,0.00,weatherlink.com 1.10,2013-10-04 06:31:00,
2013-10-04 01:46:00,67.5,66.0,29.87,SE,127,1.0,3.0,95,0.00,,,0.00,weatherlink.com 1.10,2013-10-04 06:46:00,
2013-10-04 02:01:00,67.4,66.0,29.87,ESE,113,2.0,3.0,96,0.00,,,0.00,weatherlink.com 1.10,2013-10-04 07:01:00,
2013-10-04 02:16:00,67.4,66.0,29.87,SE,124,0.0,3.0,96,0.00,,,0.00,weatherlink.com 1.10,2013-10-04 07:16:00,
2013-10-04 02:31:00,67.2,66.0,29.87,SE,131,0.0,3.0,96,0.00,,,0.00,weatherlink.com 1.10,2013-10-04 07:31:00,
2013-10-04 02:46:00,67.1,66.0,29.87,ENE,63,2.0,3.0,96,0.00,,,0.00,weatherlink.com 1.10,2013-10-04 07:46:00,
2013-10-04 03:01:00,67.1,66.0,29.87,SE,134,1.0,4.0,96,0.00,,,0.00,weatherlink.com 1.10,2013-10-04 08:01:00,
2013-10-04 03:16:00,66.9,66.0,29.87,ESE,120,1.0,4.0,96,0.00,,,0.00,weatherlink.com 1.10,2013-10-04 08:16:00,
2013-10-04 03:31:00,67.1,66.0,29.87,ENE,77,2.0,3.0,97,0.00,,,0.00,weatherlink.com 1.10,2013-10-04 08:31:00,
2013-10-04 03:46:00,66.9,66.0,29.86,East,99,2.0,3.0,97,0.00,,,0.00,weatherlink.com 1.10,2013-10-04 08:46:00,
2013-10-04 04:01:00,66.8,66.0,29.86,SE,124,0.0,3.0,97,0.00,,,0.00,weatherlink.com 1.10,2013-10-04 09:01:00,
2013-10-04 04:16:00,66.8,66.0,29.86,ESE,117,1.0,2.0,97,0.00,,,0.00,weatherlink.com 1.10,2013-10-04 09:16:00,
2013-10-04 04:31:00,66.7,66.0,29.86,ESE,121,1.0,3.0,97,0.00,,,0.00,weatherlink.com 1.10,2013-10-04 09:31:00,
2013-10-04 04:46:00,66.6,66.0,29.86,SE,127,1.0,5.0,97,0.00,,,0.00,weatherlink.com 1.10,2013-10-04 09:46:00,
2013-10-04 05:01:00,66.5,66.0,29.86,SE,135,0.0,2.0,97,0.00,,,0.00,weatherlink.com 1.10,2013-10-04 10:01:00,
2013-10-04 05:16:00,66.4,66.0,29.86,WNW,301,0.0,2.0,97,0.00,,,0.00,weatherlink.com 1.10,2013-10-04 10:16:00,
2013-10-04 05:31:00,66.5,66.0,29.86,SE,129,2.0,3.0,97,0.00,,,0.00,weatherlink.com 1.10,2013-10-04 10:31:00,
2013-10-04 05:46:00,66.4,66.0,29.86,ESE,116,0.0,2.0,97,0.00,,,0.00,weatherlink.com 1.10,2013-10-04 10:46:00,
2013-10-04 06:01:00,66.4,66.0,29.87,ESE,114,2.0,5.0,98,0.00,,,0.00,weatherlink.com 1.10,2013-10-04 11:01:00,
2013-10-04 06:16:00,66.4,66.0,29.87,ESE,119,1.0,2.0,98,0.00,,,0.00,weatherlink.com 1.10,2013-10-04 11:16:00,
2013-10-04 06:31:00,66.4,66.0,29.87,East,89,0.0,2.0,98,0.00,,,0.00,weatherlink.com 1.10,2013-10-04 11:31:00,
2013-10-04 06:46:00,66.5,66.0,29.87,ESE,117,1.0,3.0,98,0.00,,,0.00,weatherlink.com 1.10,2013-10-04 11:46:00,
2013-10-04 07:01:00,66.2,65.0,29.88,ESE,109,0.0,1.0,97,0.00,,,0.00,weatherlink.com 1.10,2013-10-04 12:01:00,
2013-10-04 07:16:00,66.3,66.0,29.88,SE,127,1.0,3.0,98,0.00,,,0.00,weatherlink.com 1.10,2013-10-04 12:16:00,
2013-10-04 07:31:00,66.5,66.0,29.88,ESE,113,2.0,4.0,98,0.00,,,0.00,weatherlink.com 1.10,2013-10-04 12:31:00,
2013-10-04 07:46:00,66.9,66.0,29.88,ESE,111,2.0,3.0,98,0.00,,,0.00,weatherlink.com 1.10,2013-10-04 12:46:00,
2013-10-04 08:01:00,67.3,67.0,29.88,ESE,105,0.0,3.0,98,0.00,,,0.00,weatherlink.com 1.10,2013-10-04 13:01:00,
2013-10-04 08:16:00,68.5,68.0,29.88,ESE,120,0.0,3.0,97,0.00,,,0.00,weatherlink.com 1.10,2013-10-04 13:16:00,
2013-10-04 08:31:00,70.2,69.0,29.89,SE,127,3.0,3.0,95,0.00,,,0.00,weatherlink.com 1.10,2013-10-04 13:31:00,
2013-10-04 08:46:00,71.4,69.0,29.89,ESE,105,1.0,4.0,92,0.00,,,0.00,weatherlink.com 1.10,2013-10-04 13:46:00,
2013-10-04 09:01:00,72.4,70.0,29.89,ESE,115,2.0,3.0,91,0.00,,,0.00,weatherlink.com 1.10,2013-10-04 14:01:00,
2013-10-04 09:16:00,73.5,70.0,29.89,ESE,118,0.0,4.0,89,0.00,,,0.00,weatherlink.com 1.10,2013-10-04 14:16:00,
2013-10-04 09:31:00,74.3,71.0,29.89,ENE,75,2.0,4.0,88,0.00,,,0.00,weatherlink.com 1.10,2013-10-04 14:31:00,
2013-10-04 09:46:00,74.8,70.0,29.89,ESE,111,2.0,5.0,86,0.00,,,0.00,weatherlink.com 1.10,2013-10-04 14:46:00,
2013-10-04 10:01:00,74.5,70.0,29.90,ESE,110,5.0,8.0,86,0.00,,,0.00,weatherlink.com 1.10,2013-10-04 15:01:00,
2013-10-04 10:16:00,74.9,71.0,29.90,ESE,119,3.0,6.0,86,0.00,,,0.00,weatherlink.com 1.10,2013-10-04 15:16:00,
2013-10-04 10:31:00,75.9,71.0,29.90,SE,127,1.0,7.0,85,0.00,,,0.00,weatherlink.com 1.10,2013-10-04 15:31:00,
2013-10-04 10:46:00,76.9,71.0,29.90,ESE,103,2.0,5.0,82,0.00,,,0.00,weatherlink.com 1.10,2013-10-04 15:46:00,
2013-10-04 11:17:00,78.7,72.0,29.89,ESE,114,1.0,8.0,79,0.00,,,0.00,weatherlink.com 1.10,2013-10-04 16:17:00,
2013-10-04 11:32:00,77.7,71.0,29.90,NW,318,1.0,5.0,79,0.00,,,0.00,weatherlink.com 1.10,2013-10-04 16:32:00,
2013-10-04 11:47:00,78.5,71.0,29.89,SE,138,3.0,5.0,78,0.00,,,0.00,weatherlink.com 1.10,2013-10-04 16:47:00,
2013-10-04 12:02:00,79.6,71.0,29.89,SE,131,2.0,6.0,76,0.00,,,0.00,weatherlink.com 1.10,2013-10-04 17:02:00,
2013-10-04 12:17:00,79.9,71.0,29.89,WSW,252,3.0,7.0,75,0.00,,,0.00,weatherlink.com 1.10,2013-10-04 17:17:00,
2013-10-04 12:32:00,80.1,72.0,29.89,West,267,1.0,7.0,76,0.00,,,0.00,weatherlink.com 1.10,2013-10-04 17:32:00,
2013-10-04 13:02:00,82.1,71.0,29.88,SW,217,2.0,4.0,69,0.00,,,0.00,weatherlink.com 1.10,2013-10-04 18:02:00,
2013-10-04 13:17:00,82.6,71.0,29.86,WSW,257,2.0,6.0,68,0.00,,,0.00,weatherlink.com 1.10,2013-10-04 18:17:00,
2013-10-04 13:32:00,82.8,70.0,29.86,ESE,110,2.0,5.0,66,0.00,,,0.00,weatherlink.com 1.10,2013-10-04 18:32:00,
2013-10-04 13:47:00,82.7,70.0,29.85,NNE,16,3.0,6.0,66,0.00,,,0.00,weatherlink.com 1.10,2013-10-04 18:47:00,
2013-10-04 14:02:00,82.7,70.0,29.84,SE,132,0.0,5.0,66,0.00,,,0.00,weatherlink.com 1.10,2013-10-04 19:02:00,
2013-10-04 14:17:00,83.3,71.0,29.84,SE,139,3.0,4.0,67,0.00,,,0.00,weatherlink.com 1.10,2013-10-04 19:17:00,
2013-10-04 14:32:00,83.5,71.0,29.83,ESE,121,1.0,4.0,66,0.00,,,0.00,weatherlink.com 1.10,2013-10-04 19:32:00,
2013-10-04 14:47:00,83.4,71.0,29.83,SE,135,2.0,5.0,67,0.00,,,0.00,weatherlink.com 1.10,2013-10-04 19:47:00,
2013-10-04 15:02:00,83.5,71.0,29.83,SE,124,1.0,5.0,65,0.00,,,0.00,weatherlink.com 1.10,2013-10-04 20:02:00,
2013-10-04 15:17:00,84.4,71.0,29.83,East,101,1.0,4.0,64,0.00,,,0.00,weatherlink.com 1.10,2013-10-04 20:17:00,
2013-10-04 15:32:00,84.3,71.0,29.83,SE,124,0.0,4.0,64,0.00,,,0.00,weatherlink.com 1.10,2013-10-04 20:32:00,
2013-10-04 15:47:00,84.0,71.0,29.83,East,101,2.0,3.0,64,0.00,,,0.00,weatherlink.com 1.10,2013-10-04 20:47:00,
2013-10-04 16:02:00,83.9,70.0,29.83,SE,142,1.0,7.0,63,0.00,,,0.00,weatherlink.com 1.10,2013-10-04 21:02:00,
2013-10-04 16:17:00,83.0,70.0,29.82,ESE,107,2.0,5.0,66,0.00,,,0.00,weatherlink.com 1.10,2013-10-04 21:17:00,
2013-10-04 16:32:00,82.5,69.0,29.82,ESE,113,2.0,7.0,63,0.00,,,0.00,weatherlink.com 1.10,2013-10-04 21:32:00,
2013-10-04 16:47:00,81.6,69.0,29.82,ESE,110,2.0,5.0,66,0.00,,,0.00,weatherlink.com 1.10,2013-10-04 21:47:00,
2013-10-04 17:02:00,81.0,69.0,29.82,ESE,110,2.0,3.0,67,0.00,,,0.00,weatherlink.com 1.10,2013-10-04 22:02:00,
2013-10-04 17:17:00,81.1,70.0,29.82,West,259,3.0,5.0,68,0.00,,,0.00,weatherlink.com 1.10,2013-10-04 22:17:00,
2013-10-04 17:47:00,79.6,67.0,29.82,SSW,204,0.0,6.0,66,0.00,,,0.00,weatherlink.com 1.10,2013-10-04 22:47:00,
2013-10-04 18:02:00,78.9,67.0,29.82,NNW,338,0.0,3.0,67,0.00,,,0.00,weatherlink.com 1.10,2013-10-04 23:02:00,
2013-10-04 18:17:00,77.7,66.0,29.82,SE,134,0.0,1.0,68,0.00,,,0.00,weatherlink.com 1.10,2013-10-04 23:17:00,
2013-10-04 18:32:00,76.6,67.0,29.82,North,8,0.0,1.0,71,0.00,,,0.00,weatherlink.com 1.10,2013-10-04 23:32:00,
2013-10-04 18:47:00,75.5,67.0,29.82,East,91,0.0,1.0,74,0.00,,,0.00,weatherlink.com 1.10,2013-10-04 23:47:00,
2013-10-04 19:02:00,74.6,66.0,29.82,ENE,70,0.0,1.0,75,0.00,,,0.00,weatherlink.com 1.10,2013-10-05 00:02:00,
2013-10-04 19:17:00,74.2,65.0,29.82,ESE,120,0.0,1.0,74,0.00,,,0.00,weatherlink.com 1.10,2013-10-05 00:17:00,
2013-10-04 19:47:00,73.6,64.0,29.82,ESE,103,1.0,2.0,73,0.00,,,0.00,weatherlink.com 1.10,2013-10-05 00:47:00,
2013-10-04 20:02:00,73.5,65.0,29.83,ESE,110,0.0,1.0,74,0.00,,,0.00,weatherlink.com 1.10,2013-10-05 01:02:00,
2013-10-04 20:17:00,72.7,66.0,29.84,East,89,0.0,1.0,78,0.00,,,0.00,weatherlink.com 1.10,2013-10-05 01:17:00,
2013-10-04 20:32:00,72.2,66.0,29.85,East,101,0.0,1.0,80,0.00,,,0.00,weatherlink.com 1.10,2013-10-05 01:32:00,
2013-10-04 20:47:00,71.3,66.0,29.86,ESE,123,0.0,3.0,82,0.00,,,0.00,weatherlink.com 1.10,2013-10-05 01:47:00,
2013-10-04 21:17:00,71.9,67.0,29.88,ESE,119,0.0,2.0,83,0.00,,,0.00,weatherlink.com 1.10,2013-10-05 02:17:00,
2013-10-04 21:32:00,72.1,67.0,29.88,ESE,110,0.0,3.0,84,0.00,,,0.00,weatherlink.com 1.10,2013-10-05 02:32:00,
2013-10-04 21:55:00,72.0,68.0,29.87,East,95,2.0,3.0,86,0.00,,,0.00,weatherlink.com 1.10,2013-10-05 02:55:00,
2013-10-04 22:02:00,71.9,68.0,29.87,ESE,122,0.0,3.0,87,0.00,,,0.00,weatherlink.com 1.10,2013-10-05 03:02:00,
2013-10-04 22:17:00,71.6,68.0,29.87,SE,124,1.0,3.0,87,0.00,,,0.00,weatherlink.com 1.10,2013-10-05 03:17:00,
2013-10-04 22:32:00,71.4,68.0,29.87,ESE,118,1.0,3.0,88,0.00,,,0.00,weatherlink.com 1.10,2013-10-05 03:32:00,
2013-10-04 22:47:00,71.2,68.0,29.87,ESE,105,1.0,3.0,89,0.00,,,0.00,weatherlink.com 1.10,2013-10-05 03:47:00,
2013-10-04 23:02:00,70.9,68.0,29.88,ESE,103,0.0,3.0,90,0.00,,,0.00,weatherlink.com 1.10,2013-10-05 04:02:00,
2013-10-04 23:17:00,70.8,68.0,29.88,SE,131,1.0,3.0,91,0.00,,,0.00,weatherlink.com 1.10,2013-10-05 04:17:00,
2013-10-04 23:32:00,70.5,68.0,29.88,SE,127,3.0,3.0,91,0.00,,,0.00,weatherlink.com 1.10,2013-10-05 04:32:00,
2013-10-04 23:47:00,70.3,68.0,29.88,SE,124,0.0,3.0,92,0.00,,,0.00,weatherlink.com 1.10,2013-10-05 04:47:00,